Bavaria

Jump to table bottom
Date/Time Temp deg F RH % Wind MPH Wind Max Wind Dir Snow 24hr inches Snow Depth inches
01/20/17 22:00 10.8 81 2 8 SE - 116 0.1 47.1
01/20/17 21:00 9.7 84 2 5 NW - 335 0.1 46.9
01/20/17 20:00 10.3 82 3 9 W - 253 0.1 46.7
01/20/17 19:00 11.0 82 6 13 SE - 147 0.1 46.4
01/20/17 18:00 11.0 85 9 16 SW - 242 0.1 -18.5
01/20/17 17:00 12.1 76 8 14 SW - 218 0.0 44.4
01/20/17 16:00 16.6 65 8 13 W - 260 -0.2 46.0
01/20/17 15:00 21.2 59 5 9 W - 254 -0.3 143.3
01/20/17 14:00 16.0 75 7 12 S - 164 -0.0 46.9
01/20/17 13:00 17.3 74 5 9 S - 201 -0.1 46.9
01/20/17 12:00 15.6 82 4 9 S - 196 -0.0 45.6
01/20/17 11:00 17.0 82 2 5 E - 106 -0.0 47.1
01/20/17 10:00 14.6 84 3 5 SE - 129 -0.2 47.2
01/20/17 09:00 13.7 86 3 6 NE - 30 0.2 47.6
01/20/17 08:00 11.9 87 4 6 NW - 312 0.1 47.5
01/20/17 07:00 12.1 87 3 6 NW - 303 0.0 47.4
01/20/17 06:00 13.2 86 4 9 NW - 293 0.2 47.4
01/20/17 05:00 13.7 87 4 9 W - 275 0.2 46.7
01/20/17 04:00 13.9 88 3 6 W - 276 0.0 -19.1
01/20/17 03:00 15.1 88 5 10 NE - 62 0.0 -19.2
01/20/17 02:00 14.8 88 4 11 W - 258 0.0 46.9
01/20/17 01:00 15.5 88 4 7 SW - 216 0.0 44.9
01/20/17 00:00 16.1 89 3 6 W - 259 0.1 44.9
01/19/17 23:00 16.7 88 6 10 SW - 241 0.0 44.5
01/19/17 22:00 16.4 89 6 10 W - 270 0.0 44.2
01/19/17 21:00 17.2 90 5 8 W - 262 0.0 44.2
01/19/17 20:00 17.6 90 2 10 SW - 236 0.0 44.5
01/19/17 19:00 19.0 89 8 14 SW - 203 0.0 45.6
01/19/17 18:00 18.5 90 6 12 W - 272 0.0 -20.2
01/19/17 17:00 19.6 90 4 11 SW - 242 0.1 -20.3
01/19/17 16:00 19.3 89 3 8 SW - 234 0.0 47.5
01/19/17 15:00 20.6 89 3 11 SW - 206 0.7 47.0
01/19/17 14:00 20.0 88 2 6 NW - 313 0.7 46.7
01/19/17 13:00 20.4 89 3 9 W - 257 0.5 46.1
01/19/17 12:00 20.7 89 5 12 S - 162 -0.0 45.7
01/19/17 11:00 20.5 90 7 11 W - 267 0.6 -36.3
01/19/17 10:00 20.1 89 8 13 NW - 295 0.7 47.4
01/19/17 09:00 19.5 90 8 13 SW - 246 0.6 47.2
01/19/17 08:00 19.3 90 6 11 W - 248 0.6 46.9
01/19/17 07:00 20.9 89 6 13 W - 249 0.3 47.7
01/19/17 06:00 21.6 85 6 10 W - 262 0.3 47.7
01/19/17 05:00 21.4 86 8 15 SW - 214 0.3 47.5
01/19/17 04:00 20.5 88 8 16 SW - 236 0.2 47.2
01/19/17 03:00 21.5 79 8 21 W - 263 0.2 47.7
01/19/17 02:00 21.5 77 9 19 S - 190 0.3 47.3
01/19/17 01:00 24.0 73 12 23 SW - 216 0.1 48.0
01/19/17 00:00 23.9 82 10 21 W - 252 0.1 47.8
01/18/17 23:00 25.3 82 9 19 S - 168 0.2 47.9
01/18/17 22:00 23.6 87 6 18 W - 266 0.1 47.8
01/18/17 21:00 25.1 79 8 22 W - 257 0.2 47.9
.